sensor_id;sensor_type;location;lat;lon;timestamp;P1;durP1;ratioP1;P2;durP2;ratioP2
38865;SDS011;62686;48.984;8.394;2023-02-26T00:00:27;5.23;;;1.77;;
38865;SDS011;62686;48.984;8.394;2023-02-26T00:02:56;7.03;;;2.03;;
38865;SDS011;62686;48.984;8.394;2023-02-26T00:05:24;3.00;;;2.27;;
38865;SDS011;62686;48.984;8.394;2023-02-26T00:07:54;7.63;;;2.27;;
38865;SDS011;62686;48.984;8.394;2023-02-26T00:10:22;2.87;;;1.80;;
38865;SDS011;62686;48.984;8.394;2023-02-26T00:12:51;5.30;;;2.37;;
38865;SDS011;62686;48.984;8.394;2023-02-26T00:15:20;4.20;;;2.20;;
38865;SDS011;62686;48.984;8.394;2023-02-26T00:17:51;4.53;;;2.33;;
38865;SDS011;62686;48.984;8.394;2023-02-26T00:20:26;3.13;;;2.30;;
38865;SDS011;62686;48.984;8.394;2023-02-26T00:22:56;4.73;;;2.20;;
38865;SDS011;62686;48.984;8.394;2023-02-26T00:25:27;3.87;;;2.30;;
38865;SDS011;62686;48.984;8.394;2023-02-26T00:27:56;4.17;;;2.30;;
38865;SDS011;62686;48.984;8.394;2023-02-26T00:30:27;4.43;;;2.33;;
38865;SDS011;62686;48.984;8.394;2023-02-26T00:32:56;3.13;;;2.13;;
38865;SDS011;62686;48.984;8.394;2023-02-26T00:35:25;4.20;;;2.40;;
38865;SDS011;62686;48.984;8.394;2023-02-26T00:37:57;3.17;;;2.50;;
38865;SDS011;62686;48.984;8.394;2023-02-26T00:40:29;4.37;;;2.47;;
38865;SDS011;62686;48.984;8.394;2023-02-26T00:43:04;4.47;;;2.20;;
38865;SDS011;62686;48.984;8.394;2023-02-26T00:45:34;5.13;;;2.57;;
38865;SDS011;62686;48.984;8.394;2023-02-26T00:48:22;6.00;;;2.07;;
38865;SDS011;62686;48.984;8.394;2023-02-26T00:51:02;3.17;;;2.03;;
38865;SDS011;62686;48.984;8.394;2023-02-26T00:53:40;4.13;;;2.40;;
38865;SDS011;62686;48.984;8.394;2023-02-26T00:56:15;4.93;;;2.40;;
38865;SDS011;62686;48.984;8.394;2023-02-26T00:58:44;6.33;;;2.27;;
38865;SDS011;62686;48.984;8.394;2023-02-26T01:01:12;3.77;;;2.00;;
38865;SDS011;62686;48.984;8.394;2023-02-26T01:03:40;5.93;;;2.20;;
38865;SDS011;62686;48.984;8.394;2023-02-26T01:06:10;4.90;;;2.37;;
38865;SDS011;62686;48.984;8.394;2023-02-26T01:08:44;8.43;;;2.10;;
38865;SDS011;62686;48.984;8.394;2023-02-26T01:11:19;5.90;;;2.40;;
38865;SDS011;62686;48.984;8.394;2023-02-26T01:13:48;5.17;;;2.13;;
38865;SDS011;62686;48.984;8.394;2023-02-26T01:16:19;3.73;;;1.90;;
38865;SDS011;62686;48.984;8.394;2023-02-26T01:18:52;5.07;;;2.00;;
38865;SDS011;62686;48.984;8.394;2023-02-26T01:21:27;5.40;;;2.43;;
38865;SDS011;62686;48.984;8.394;2023-02-26T01:24:01;4.87;;;2.27;;
38865;SDS011;62686;48.984;8.394;2023-02-26T01:26:32;4.37;;;2.53;;
38865;SDS011;62686;48.984;8.394;2023-02-26T01:29:01;6.73;;;2.47;;
38865;SDS011;62686;48.984;8.394;2023-02-26T01:31:33;2.50;;;1.70;;
38865;SDS011;62686;48.984;8.394;2023-02-26T01:34:08;6.67;;;2.50;;
38865;SDS011;62686;48.984;8.394;2023-02-26T01:36:42;4.53;;;2.40;;
38865;SDS011;62686;48.984;8.394;2023-02-26T01:39:17;4.67;;;2.50;;
38865;SDS011;62686;48.984;8.394;2023-02-26T01:41:53;3.80;;;2.53;;
38865;SDS011;62686;48.984;8.394;2023-02-26T01:44:25;4.10;;;2.47;;
38865;SDS011;62686;48.984;8.394;2023-02-26T01:46:59;5.43;;;2.80;;
38865;SDS011;62686;48.984;8.394;2023-02-26T01:49:43;3.83;;;2.50;;
38865;SDS011;62686;48.984;8.394;2023-02-26T01:55:51;4.73;;;2.93;;
38865;SDS011;62686;48.984;8.394;2023-02-26T01:58:23;3.87;;;2.57;;
38865;SDS011;62686;48.984;8.394;2023-02-26T02:00:54;5.30;;;3.10;;
38865;SDS011;62686;48.984;8.394;2023-02-26T02:03:22;3.97;;;2.63;;
38865;SDS011;62686;48.984;8.394;2023-02-26T02:05:54;4.43;;;2.70;;
38865;SDS011;62686;48.984;8.394;2023-02-26T02:08:26;4.60;;;3.10;;
38865;SDS011;62686;48.984;8.394;2023-02-26T02:10:56;7.20;;;3.10;;
38865;SDS011;62686;48.984;8.394;2023-02-26T02:13:28;4.87;;;2.70;;
38865;SDS011;62686;48.984;8.394;2023-02-26T02:16:07;5.33;;;3.00;;
38865;SDS011;62686;48.984;8.394;2023-02-26T02:18:47;8.40;;;3.40;;
38865;SDS011;62686;48.984;8.394;2023-02-26T02:21:24;4.23;;;2.97;;
38865;SDS011;62686;48.984;8.394;2023-02-26T02:24:00;5.63;;;3.27;;
38865;SDS011;62686;48.984;8.394;2023-02-26T02:26:47;5.33;;;3.60;;
38865;SDS011;62686;48.984;8.394;2023-02-26T02:29:43;4.60;;;3.30;;
38865;SDS011;62686;48.984;8.394;2023-02-26T02:32:44;4.73;;;3.00;;
38865;SDS011;62686;48.984;8.394;2023-02-26T02:35:17;5.43;;;3.07;;
38865;SDS011;62686;48.984;8.394;2023-02-26T02:37:50;9.17;;;3.10;;
38865;SDS011;62686;48.984;8.394;2023-02-26T02:40:24;5.33;;;3.30;;
38865;SDS011;62686;48.984;8.394;2023-02-26T02:42:57;6.17;;;3.00;;
38865;SDS011;62686;48.984;8.394;2023-02-26T02:45:30;6.70;;;3.83;;
38865;SDS011;62686;48.984;8.394;2023-02-26T02:48:04;6.03;;;3.30;;
38865;SDS011;62686;48.984;8.394;2023-02-26T02:50:38;5.93;;;3.50;;
38865;SDS011;62686;48.984;8.394;2023-02-26T02:53:10;5.87;;;3.43;;
38865;SDS011;62686;48.984;8.394;2023-02-26T02:55:45;6.07;;;3.60;;
38865;SDS011;62686;48.984;8.394;2023-02-26T02:58:18;4.47;;;3.10;;
38865;SDS011;62686;48.984;8.394;2023-02-26T03:00:50;6.50;;;4.13;;
38865;SDS011;62686;48.984;8.394;2023-02-26T03:03:25;7.17;;;3.17;;
38865;SDS011;62686;48.984;8.394;2023-02-26T03:05:58;5.63;;;3.43;;
38865;SDS011;62686;48.984;8.394;2023-02-26T03:08:26;6.30;;;4.33;;
38865;SDS011;62686;48.984;8.394;2023-02-26T03:10:58;6.80;;;4.03;;
38865;SDS011;62686;48.984;8.394;2023-02-26T03:13:26;6.93;;;4.23;;
38865;SDS011;62686;48.984;8.394;2023-02-26T03:15:59;7.80;;;3.70;;
38865;SDS011;62686;48.984;8.394;2023-02-26T03:18:40;9.63;;;4.10;;
38865;SDS011;62686;48.984;8.394;2023-02-26T03:21:17;6.17;;;3.47;;
38865;SDS011;62686;48.984;8.394;2023-02-26T03:23:53;4.37;;;3.93;;
38865;SDS011;62686;48.984;8.394;2023-02-26T03:26:26;5.47;;;3.60;;
38865;SDS011;62686;48.984;8.394;2023-02-26T03:28:58;5.30;;;3.63;;
38865;SDS011;62686;48.984;8.394;2023-02-26T03:31:32;7.50;;;4.03;;
38865;SDS011;62686;48.984;8.394;2023-02-26T03:34:07;11.83;;;4.00;;
38865;SDS011;62686;48.984;8.394;2023-02-26T03:36:41;7.60;;;4.50;;
38865;SDS011;62686;48.984;8.394;2023-02-26T03:39:13;13.87;;;4.40;;
38865;SDS011;62686;48.984;8.394;2023-02-26T03:41:48;7.83;;;4.70;;
38865;SDS011;62686;48.984;8.394;2023-02-26T03:44:22;7.93;;;4.10;;
38865;SDS011;62686;48.984;8.394;2023-02-26T03:46:55;6.63;;;4.20;;
38865;SDS011;62686;48.984;8.394;2023-02-26T03:49:28;5.43;;;3.83;;
38865;SDS011;62686;48.984;8.394;2023-02-26T03:51:59;10.37;;;4.10;;
38865;SDS011;62686;48.984;8.394;2023-02-26T03:54:31;7.00;;;3.70;;
38865;SDS011;62686;48.984;8.394;2023-02-26T03:57:03;8.90;;;4.03;;
38865;SDS011;62686;48.984;8.394;2023-02-26T03:59:32;5.40;;;3.70;;
38865;SDS011;62686;48.984;8.394;2023-02-26T04:02:02;13.10;;;4.10;;
38865;SDS011;62686;48.984;8.394;2023-02-26T04:04:34;4.50;;;3.90;;
38865;SDS011;62686;48.984;8.394;2023-02-26T04:07:07;16.80;;;3.90;;
38865;SDS011;62686;48.984;8.394;2023-02-26T04:09:37;6.73;;;4.03;;
38865;SDS011;62686;48.984;8.394;2023-02-26T04:12:07;6.27;;;3.70;;
38865;SDS011;62686;48.984;8.394;2023-02-26T04:14:36;7.30;;;3.97;;
38865;SDS011;62686;48.984;8.394;2023-02-26T04:17:04;8.20;;;4.00;;
38865;SDS011;62686;48.984;8.394;2023-02-26T04:19:34;5.70;;;3.70;;
38865;SDS011;62686;48.984;8.394;2023-02-26T04:22:02;6.27;;;3.80;;
38865;SDS011;62686;48.984;8.394;2023-02-26T04:24:30;9.73;;;4.30;;
38865;SDS011;62686;48.984;8.394;2023-02-26T04:26:58;6.80;;;4.30;;
38865;SDS011;62686;48.984;8.394;2023-02-26T04:29:27;7.80;;;3.93;;
38865;SDS011;62686;48.984;8.394;2023-02-26T04:31:55;7.67;;;4.53;;
38865;SDS011;62686;48.984;8.394;2023-02-26T04:34:23;6.93;;;4.17;;
38865;SDS011;62686;48.984;8.394;2023-02-26T04:36:53;8.30;;;4.37;;
38865;SDS011;62686;48.984;8.394;2023-02-26T04:39:21;8.57;;;4.30;;
38865;SDS011;62686;48.984;8.394;2023-02-26T04:41:49;5.87;;;4.43;;
38865;SDS011;62686;48.984;8.394;2023-02-26T04:44:17;9.53;;;4.03;;
38865;SDS011;62686;48.984;8.394;2023-02-26T04:46:45;6.03;;;3.80;;
38865;SDS011;62686;48.984;8.394;2023-02-26T04:49:14;8.07;;;4.30;;
38865;SDS011;62686;48.984;8.394;2023-02-26T04:51:42;6.30;;;4.10;;
38865;SDS011;62686;48.984;8.394;2023-02-26T04:54:12;7.10;;;4.27;;
38865;SDS011;62686;48.984;8.394;2023-02-26T04:56:40;8.17;;;4.47;;
38865;SDS011;62686;48.984;8.394;2023-02-26T04:59:08;8.07;;;4.43;;
38865;SDS011;62686;48.984;8.394;2023-02-26T05:01:37;9.30;;;4.00;;
38865;SDS011;62686;48.984;8.394;2023-02-26T05:04:05;6.87;;;4.00;;
38865;SDS011;62686;48.984;8.394;2023-02-26T05:06:33;7.63;;;4.57;;
38865;SDS011;62686;48.984;8.394;2023-02-26T05:09:02;7.20;;;4.40;;
38865;SDS011;62686;48.984;8.394;2023-02-26T05:11:32;6.97;;;4.37;;
38865;SDS011;62686;48.984;8.394;2023-02-26T05:14:00;6.03;;;3.70;;
38865;SDS011;62686;48.984;8.394;2023-02-26T05:16:29;5.20;;;4.00;;
38865;SDS011;62686;48.984;8.394;2023-02-26T05:18:57;7.93;;;4.30;;
38865;SDS011;62686;48.984;8.394;2023-02-26T05:21:25;8.30;;;4.53;;
38865;SDS011;62686;48.984;8.394;2023-02-26T05:23:53;5.97;;;4.30;;
38865;SDS011;62686;48.984;8.394;2023-02-26T05:26:21;5.50;;;3.90;;
38865;SDS011;62686;48.984;8.394;2023-02-26T05:28:52;8.93;;;4.50;;
38865;SDS011;62686;48.984;8.394;2023-02-26T05:31:20;7.60;;;4.23;;
38865;SDS011;62686;48.984;8.394;2023-02-26T05:33:48;11.13;;;4.10;;
38865;SDS011;62686;48.984;8.394;2023-02-26T05:36:16;8.40;;;4.67;;
38865;SDS011;62686;48.984;8.394;2023-02-26T05:38:45;7.47;;;4.87;;
38865;SDS011;62686;48.984;8.394;2023-02-26T05:41:13;8.53;;;4.63;;
38865;SDS011;62686;48.984;8.394;2023-02-26T05:43:41;9.57;;;4.47;;
38865;SDS011;62686;48.984;8.394;2023-02-26T05:46:11;7.13;;;4.63;;
38865;SDS011;62686;48.984;8.394;2023-02-26T05:48:39;14.40;;;7.20;;
38865;SDS011;62686;48.984;8.394;2023-02-26T05:51:10;11.27;;;6.83;;
38865;SDS011;62686;48.984;8.394;2023-02-26T05:53:38;7.53;;;5.27;;
38865;SDS011;62686;48.984;8.394;2023-02-26T05:56:06;9.33;;;4.80;;
38865;SDS011;62686;48.984;8.394;2023-02-26T05:58:35;7.23;;;5.13;;
38865;SDS011;62686;48.984;8.394;2023-02-26T06:01:03;7.33;;;4.77;;
38865;SDS011;62686;48.984;8.394;2023-02-26T06:03:33;9.57;;;5.77;;
38865;SDS011;62686;48.984;8.394;2023-02-26T06:06:01;6.70;;;4.50;;
38865;SDS011;62686;48.984;8.394;2023-02-26T06:08:29;7.93;;;4.80;;
38865;SDS011;62686;48.984;8.394;2023-02-26T06:10:57;10.73;;;5.60;;
38865;SDS011;62686;48.984;8.394;2023-02-26T06:13:26;6.57;;;4.60;;
38865;SDS011;62686;48.984;8.394;2023-02-26T06:15:54;9.33;;;5.50;;
38865;SDS011;62686;48.984;8.394;2023-02-26T06:18:22;8.73;;;5.43;;
38865;SDS011;62686;48.984;8.394;2023-02-26T06:20:51;6.23;;;5.30;;
38865;SDS011;62686;48.984;8.394;2023-02-26T06:23:20;8.63;;;5.80;;
38865;SDS011;62686;48.984;8.394;2023-02-26T06:25:49;7.10;;;5.47;;
38865;SDS011;62686;48.984;8.394;2023-02-26T06:28:18;8.97;;;5.70;;
38865;SDS011;62686;48.984;8.394;2023-02-26T06:30:46;9.80;;;5.17;;
38865;SDS011;62686;48.984;8.394;2023-02-26T06:33:14;10.43;;;6.00;;
38865;SDS011;62686;48.984;8.394;2023-02-26T06:35:42;12.43;;;6.20;;
38865;SDS011;62686;48.984;8.394;2023-02-26T06:38:12;13.10;;;6.13;;
38865;SDS011;62686;48.984;8.394;2023-02-26T06:40:41;10.03;;;6.50;;
38865;SDS011;62686;48.984;8.394;2023-02-26T06:43:09;9.70;;;5.60;;
38865;SDS011;62686;48.984;8.394;2023-02-26T06:45:37;11.90;;;6.13;;
38865;SDS011;62686;48.984;8.394;2023-02-26T06:48:06;11.43;;;5.67;;
38865;SDS011;62686;48.984;8.394;2023-02-26T06:50:34;8.20;;;5.87;;
38865;SDS011;62686;48.984;8.394;2023-02-26T06:53:02;10.57;;;5.97;;
38865;SDS011;62686;48.984;8.394;2023-02-26T06:55:32;9.13;;;5.37;;
38865;SDS011;62686;48.984;8.394;2023-02-26T06:58:00;7.83;;;5.57;;
38865;SDS011;62686;48.984;8.394;2023-02-26T07:00:28;8.07;;;5.47;;
38865;SDS011;62686;48.984;8.394;2023-02-26T07:02:56;13.23;;;5.80;;
38865;SDS011;62686;48.984;8.394;2023-02-26T07:05:25;9.03;;;4.97;;
38865;SDS011;62686;48.984;8.394;2023-02-26T07:07:53;10.27;;;5.53;;
38865;SDS011;62686;48.984;8.394;2023-02-26T07:10:21;11.67;;;5.50;;
38865;SDS011;62686;48.984;8.394;2023-02-26T07:12:51;8.90;;;4.73;;
38865;SDS011;62686;48.984;8.394;2023-02-26T07:15:20;10.00;;;5.23;;
38865;SDS011;62686;48.984;8.394;2023-02-26T07:17:48;5.87;;;4.27;;
38865;SDS011;62686;48.984;8.394;2023-02-26T07:20:16;9.27;;;4.37;;
38865;SDS011;62686;48.984;8.394;2023-02-26T07:22:44;8.63;;;4.30;;
38865;SDS011;62686;48.984;8.394;2023-02-26T07:25:13;8.77;;;4.27;;
38865;SDS011;62686;48.984;8.394;2023-02-26T07:27:41;7.20;;;4.23;;
38865;SDS011;62686;48.984;8.394;2023-02-26T07:30:12;7.43;;;3.77;;
38865;SDS011;62686;48.984;8.394;2023-02-26T07:32:41;5.57;;;3.80;;
38865;SDS011;62686;48.984;8.394;2023-02-26T07:35:09;5.83;;;3.53;;
38865;SDS011;62686;48.984;8.394;2023-02-26T07:37:37;9.97;;;3.83;;
38865;SDS011;62686;48.984;8.394;2023-02-26T07:40:06;7.17;;;4.00;;
38865;SDS011;62686;48.984;8.394;2023-02-26T07:42:35;5.17;;;3.57;;
38865;SDS011;62686;48.984;8.394;2023-02-26T07:45:04;7.30;;;3.60;;
38865;SDS011;62686;48.984;8.394;2023-02-26T07:47:35;7.70;;;3.57;;
38865;SDS011;62686;48.984;8.394;2023-02-26T07:50:04;7.47;;;3.50;;
38865;SDS011;62686;48.984;8.394;2023-02-26T07:52:33;10.33;;;3.17;;
38865;SDS011;62686;48.984;8.394;2023-02-26T07:55:01;8.40;;;3.67;;
38865;SDS011;62686;48.984;8.394;2023-02-26T07:57:29;8.23;;;3.87;;
38865;SDS011;62686;48.984;8.394;2023-02-26T07:59:57;4.60;;;3.30;;
38865;SDS011;62686;48.984;8.394;2023-02-26T08:02:25;6.33;;;3.50;;
38865;SDS011;62686;48.984;8.394;2023-02-26T08:04:55;5.87;;;3.50;;
38865;SDS011;62686;48.984;8.394;2023-02-26T08:07:23;6.20;;;3.40;;
38865;SDS011;62686;48.984;8.394;2023-02-26T08:09:51;4.67;;;2.90;;
38865;SDS011;62686;48.984;8.394;2023-02-26T08:12:20;11.07;;;3.50;;
38865;SDS011;62686;48.984;8.394;2023-02-26T08:14:48;5.73;;;3.60;;
38865;SDS011;62686;48.984;8.394;2023-02-26T08:17:19;6.87;;;3.60;;
38865;SDS011;62686;48.984;8.394;2023-02-26T08:19:47;7.00;;;3.50;;
38865;SDS011;62686;48.984;8.394;2023-02-26T08:22:16;6.40;;;3.10;;
38865;SDS011;62686;48.984;8.394;2023-02-26T08:24:45;6.40;;;3.87;;
38865;SDS011;62686;48.984;8.394;2023-02-26T08:27:13;6.03;;;3.17;;
38865;SDS011;62686;48.984;8.394;2023-02-26T08:29:41;4.67;;;2.90;;
38865;SDS011;62686;48.984;8.394;2023-02-26T08:32:11;7.63;;;3.60;;
38865;SDS011;62686;48.984;8.394;2023-02-26T08:34:41;5.77;;;2.70;;
38865;SDS011;62686;48.984;8.394;2023-02-26T08:37:09;6.30;;;2.93;;
38865;SDS011;62686;48.984;8.394;2023-02-26T08:39:39;6.10;;;3.47;;
38865;SDS011;62686;48.984;8.394;2023-02-26T08:42:09;5.53;;;2.93;;
38865;SDS011;62686;48.984;8.394;2023-02-26T08:44:41;5.57;;;2.60;;
38865;SDS011;62686;48.984;8.394;2023-02-26T08:47:10;6.87;;;3.07;;
38865;SDS011;62686;48.984;8.394;2023-02-26T08:49:44;10.13;;;2.90;;
38865;SDS011;62686;48.984;8.394;2023-02-26T08:52:12;7.90;;;2.30;;
38865;SDS011;62686;48.984;8.394;2023-02-26T08:54:42;5.67;;;2.60;;
38865;SDS011;62686;48.984;8.394;2023-02-26T08:57:10;7.17;;;2.40;;
38865;SDS011;62686;48.984;8.394;2023-02-26T08:59:38;3.87;;;2.00;;
38865;SDS011;62686;48.984;8.394;2023-02-26T09:02:09;5.57;;;1.90;;
38865;SDS011;62686;48.984;8.394;2023-02-26T09:04:37;4.70;;;2.20;;
38865;SDS011;62686;48.984;8.394;2023-02-26T09:07:06;3.73;;;2.00;;
38865;SDS011;62686;48.984;8.394;2023-02-26T09:09:34;3.93;;;1.90;;
38865;SDS011;62686;48.984;8.394;2023-02-26T09:12:04;7.70;;;2.30;;
38865;SDS011;62686;48.984;8.394;2023-02-26T09:14:32;4.97;;;2.10;;
38865;SDS011;62686;48.984;8.394;2023-02-26T09:17:01;4.37;;;1.90;;
38865;SDS011;62686;48.984;8.394;2023-02-26T09:19:29;4.03;;;1.87;;
38865;SDS011;62686;48.984;8.394;2023-02-26T09:21:57;3.13;;;1.50;;
38865;SDS011;62686;48.984;8.394;2023-02-26T09:24:25;3.77;;;2.17;;
38865;SDS011;62686;48.984;8.394;2023-02-26T09:26:54;5.07;;;2.63;;
38865;SDS011;62686;48.984;8.394;2023-02-26T09:29:23;5.20;;;2.00;;
38865;SDS011;62686;48.984;8.394;2023-02-26T09:31:51;5.27;;;2.50;;
38865;SDS011;62686;48.984;8.394;2023-02-26T09:34:20;6.10;;;1.83;;
38865;SDS011;62686;48.984;8.394;2023-02-26T09:36:48;6.07;;;2.30;;
38865;SDS011;62686;48.984;8.394;2023-02-26T09:39:16;4.47;;;2.00;;
38865;SDS011;62686;48.984;8.394;2023-02-26T09:41:45;3.03;;;2.00;;
38865;SDS011;62686;48.984;8.394;2023-02-26T09:44:18;3.47;;;2.03;;
38865;SDS011;62686;48.984;8.394;2023-02-26T09:46:56;3.93;;;1.83;;
38865;SDS011;62686;48.984;8.394;2023-02-26T09:49:31;3.40;;;1.77;;
38865;SDS011;62686;48.984;8.394;2023-02-26T09:52:10;3.37;;;1.80;;
38865;SDS011;62686;48.984;8.394;2023-02-26T09:54:46;2.70;;;1.47;;
38865;SDS011;62686;48.984;8.394;2023-02-26T09:57:20;3.00;;;1.37;;
38865;SDS011;62686;48.984;8.394;2023-02-26T09:59:52;4.57;;;1.80;;
38865;SDS011;62686;48.984;8.394;2023-02-26T10:02:26;2.00;;;1.40;;
38865;SDS011;62686;48.984;8.394;2023-02-26T10:05:03;5.40;;;2.33;;
38865;SDS011;62686;48.984;8.394;2023-02-26T10:07:42;3.77;;;2.47;;
38865;SDS011;62686;48.984;8.394;2023-02-26T10:10:18;4.33;;;2.13;;
38865;SDS011;62686;48.984;8.394;2023-02-26T10:12:55;3.90;;;1.73;;
38865;SDS011;62686;48.984;8.394;2023-02-26T10:15:26;3.80;;;1.77;;
38865;SDS011;62686;48.984;8.394;2023-02-26T10:18:02;3.60;;;2.00;;
38865;SDS011;62686;48.984;8.394;2023-02-26T10:20:36;4.07;;;1.80;;
38865;SDS011;62686;48.984;8.394;2023-02-26T10:23:14;3.33;;;1.50;;
38865;SDS011;62686;48.984;8.394;2023-02-26T10:25:46;2.07;;;1.47;;
38865;SDS011;62686;48.984;8.394;2023-02-26T10:28:23;3.30;;;1.70;;
38865;SDS011;62686;48.984;8.394;2023-02-26T10:31:11;3.13;;;1.33;;
38865;SDS011;62686;48.984;8.394;2023-02-26T10:33:46;4.27;;;1.40;;
38865;SDS011;62686;48.984;8.394;2023-02-26T10:36:22;3.00;;;1.30;;
38865;SDS011;62686;48.984;8.394;2023-02-26T10:38:54;2.87;;;1.53;;
38865;SDS011;62686;48.984;8.394;2023-02-26T10:41:29;3.43;;;1.67;;
38865;SDS011;62686;48.984;8.394;2023-02-26T10:44:02;2.97;;;1.40;;
38865;SDS011;62686;48.984;8.394;2023-02-26T10:46:37;3.07;;;1.50;;
38865;SDS011;62686;48.984;8.394;2023-02-26T10:52:10;3.23;;;1.67;;
38865;SDS011;62686;48.984;8.394;2023-02-26T10:54:44;3.80;;;1.60;;
38865;SDS011;62686;48.984;8.394;2023-02-26T10:57:23;2.83;;;1.30;;
38865;SDS011;62686;48.984;8.394;2023-02-26T10:59:54;3.13;;;1.63;;
38865;SDS011;62686;48.984;8.394;2023-02-26T11:02:32;3.13;;;1.57;;
38865;SDS011;62686;48.984;8.394;2023-02-26T11:05:06;3.37;;;1.50;;
38865;SDS011;62686;48.984;8.394;2023-02-26T11:07:46;4.97;;;1.50;;
38865;SDS011;62686;48.984;8.394;2023-02-26T11:10:18;2.27;;;1.30;;
38865;SDS011;62686;48.984;8.394;2023-02-26T11:12:49;2.40;;;1.27;;
38865;SDS011;62686;48.984;8.394;2023-02-26T11:15:19;1.70;;;1.13;;
38865;SDS011;62686;48.984;8.394;2023-02-26T11:17:52;2.80;;;1.20;;
38865;SDS011;62686;48.984;8.394;2023-02-26T11:20:28;2.00;;;1.27;;
38865;SDS011;62686;48.984;8.394;2023-02-26T11:23:00;2.50;;;1.30;;
38865;SDS011;62686;48.984;8.394;2023-02-26T11:25:31;4.90;;;1.27;;
38865;SDS011;62686;48.984;8.394;2023-02-26T11:28:03;3.10;;;1.60;;
38865;SDS011;62686;48.984;8.394;2023-02-26T11:30:35;2.17;;;1.10;;
38865;SDS011;62686;48.984;8.394;2023-02-26T11:33:15;1.63;;;1.23;;
38865;SDS011;62686;48.984;8.394;2023-02-26T11:35:46;2.57;;;1.43;;
38865;SDS011;62686;48.984;8.394;2023-02-26T11:38:18;1.20;;;1.03;;
38865;SDS011;62686;48.984;8.394;2023-02-26T11:40:50;2.40;;;1.23;;
38865;SDS011;62686;48.984;8.394;2023-02-26T11:43:22;1.90;;;1.30;;
38865;SDS011;62686;48.984;8.394;2023-02-26T11:45:54;1.90;;;1.10;;
38865;SDS011;62686;48.984;8.394;2023-02-26T11:48:26;1.17;;;1.07;;
38865;SDS011;62686;48.984;8.394;2023-02-26T11:51:01;1.20;;;1.10;;
38865;SDS011;62686;48.984;8.394;2023-02-26T11:53:33;2.63;;;1.20;;
38865;SDS011;62686;48.984;8.394;2023-02-26T11:56:03;2.27;;;1.10;;
38865;SDS011;62686;48.984;8.394;2023-02-26T11:58:38;3.93;;;0.93;;
38865;SDS011;62686;48.984;8.394;2023-02-26T12:01:09;1.63;;;1.13;;
38865;SDS011;62686;48.984;8.394;2023-02-26T12:03:39;1.97;;;1.27;;
38865;SDS011;62686;48.984;8.394;2023-02-26T12:06:15;2.93;;;1.23;;
38865;SDS011;62686;48.984;8.394;2023-02-26T12:08:44;3.10;;;1.17;;
38865;SDS011;62686;48.984;8.394;2023-02-26T12:11:22;4.50;;;1.83;;
38865;SDS011;62686;48.984;8.394;2023-02-26T12:14:18;1.10;;;1.00;;
38865;SDS011;62686;48.984;8.394;2023-02-26T12:17:06;1.17;;;1.07;;
38865;SDS011;62686;48.984;8.394;2023-02-26T12:19:48;1.23;;;0.90;;
38865;SDS011;62686;48.984;8.394;2023-02-26T12:22:33;1.70;;;1.20;;
38865;SDS011;62686;48.984;8.394;2023-02-26T12:25:16;4.73;;;1.43;;
38865;SDS011;62686;48.984;8.394;2023-02-26T12:27:57;1.27;;;1.00;;
38865;SDS011;62686;48.984;8.394;2023-02-26T12:30:53;0.93;;;0.80;;
38865;SDS011;62686;48.984;8.394;2023-02-26T12:33:35;2.03;;;0.90;;
38865;SDS011;62686;48.984;8.394;2023-02-26T12:36:13;1.10;;;0.90;;
38865;SDS011;62686;48.984;8.394;2023-02-26T12:38:57;1.30;;;1.20;;
38865;SDS011;62686;48.984;8.394;2023-02-26T12:41:37;2.40;;;0.90;;
38865;SDS011;62686;48.984;8.394;2023-02-26T12:44:40;1.20;;;0.90;;
38865;SDS011;62686;48.984;8.394;2023-02-26T12:47:41;1.00;;;0.90;;
38865;SDS011;62686;48.984;8.394;2023-02-26T12:50:35;1.70;;;1.00;;
38865;SDS011;62686;48.984;8.394;2023-02-26T12:53:21;1.53;;;1.10;;
38865;SDS011;62686;48.984;8.394;2023-02-26T12:59:13;1.57;;;1.00;;
38865;SDS011;62686;48.984;8.394;2023-02-26T13:02:07;1.23;;;0.90;;
38865;SDS011;62686;48.984;8.394;2023-02-26T13:05:07;1.30;;;1.17;;
38865;SDS011;62686;48.984;8.394;2023-02-26T13:10:46;1.27;;;0.87;;
38865;SDS011;62686;48.984;8.394;2023-02-26T13:13:29;1.50;;;1.40;;
38865;SDS011;62686;48.984;8.394;2023-02-26T13:19:07;1.37;;;0.90;;
38865;SDS011;62686;48.984;8.394;2023-02-26T13:21:52;1.07;;;0.93;;
38865;SDS011;62686;48.984;8.394;2023-02-26T13:24:23;1.27;;;0.83;;
38865;SDS011;62686;48.984;8.394;2023-02-26T13:26:57;1.40;;;0.93;;
38865;SDS011;62686;48.984;8.394;2023-02-26T13:29:29;1.50;;;1.20;;
38865;SDS011;62686;48.984;8.394;2023-02-26T13:32:03;1.33;;;1.07;;
38865;SDS011;62686;48.984;8.394;2023-02-26T13:34:40;1.07;;;0.90;;
38865;SDS011;62686;48.984;8.394;2023-02-26T13:37:14;2.60;;;1.07;;
38865;SDS011;62686;48.984;8.394;2023-02-26T13:39:51;1.70;;;0.80;;
38865;SDS011;62686;48.984;8.394;2023-02-26T13:42:32;1.20;;;1.10;;
38865;SDS011;62686;48.984;8.394;2023-02-26T13:48:09;0.70;;;0.70;;
38865;SDS011;62686;48.984;8.394;2023-02-26T13:50:48;1.43;;;1.30;;
38865;SDS011;62686;48.984;8.394;2023-02-26T13:53:37;1.27;;;0.93;;
38865;SDS011;62686;48.984;8.394;2023-02-26T13:56:41;1.27;;;0.90;;
38865;SDS011;62686;48.984;8.394;2023-02-26T13:59:29;0.77;;;0.70;;
38865;SDS011;62686;48.984;8.394;2023-02-26T14:02:34;1.30;;;0.90;;
38865;SDS011;62686;48.984;8.394;2023-02-26T14:05:28;1.10;;;1.00;;
38865;SDS011;62686;48.984;8.394;2023-02-26T14:08:24;2.80;;;0.90;;
38865;SDS011;62686;48.984;8.394;2023-02-26T14:14:17;1.70;;;0.90;;
38865;SDS011;62686;48.984;8.394;2023-02-26T14:16:54;1.00;;;0.90;;
38865;SDS011;62686;48.984;8.394;2023-02-26T14:20:16;1.37;;;1.00;;
38865;SDS011;62686;48.984;8.394;2023-02-26T14:22:48;0.80;;;0.80;;
38865;SDS011;62686;48.984;8.394;2023-02-26T14:25:20;0.97;;;0.80;;
38865;SDS011;62686;48.984;8.394;2023-02-26T14:30:49;2.47;;;1.00;;
38865;SDS011;62686;48.984;8.394;2023-02-26T14:33:25;1.40;;;0.90;;
38865;SDS011;62686;48.984;8.394;2023-02-26T14:35:57;2.17;;;0.87;;
38865;SDS011;62686;48.984;8.394;2023-02-26T14:38:27;0.80;;;0.70;;
38865;SDS011;62686;48.984;8.394;2023-02-26T14:40:58;1.23;;;1.00;;
38865;SDS011;62686;48.984;8.394;2023-02-26T14:43:33;1.30;;;0.80;;
38865;SDS011;62686;48.984;8.394;2023-02-26T14:46:06;0.77;;;0.77;;
38865;SDS011;62686;48.984;8.394;2023-02-26T14:48:35;1.23;;;0.90;;
38865;SDS011;62686;48.984;8.394;2023-02-26T14:51:08;0.70;;;0.70;;
38865;SDS011;62686;48.984;8.394;2023-02-26T14:54:00;0.97;;;0.83;;
38865;SDS011;62686;48.984;8.394;2023-02-26T14:56:48;1.37;;;1.00;;
38865;SDS011;62686;48.984;8.394;2023-02-26T14:59:33;1.10;;;0.90;;
38865;SDS011;62686;48.984;8.394;2023-02-26T15:02:24;1.40;;;0.93;;
38865;SDS011;62686;48.984;8.394;2023-02-26T15:05:03;1.13;;;0.80;;
38865;SDS011;62686;48.984;8.394;2023-02-26T15:11:02;1.83;;;0.90;;
38865;SDS011;62686;48.984;8.394;2023-02-26T15:16:50;1.17;;;0.90;;
38865;SDS011;62686;48.984;8.394;2023-02-26T15:19:28;0.90;;;0.70;;
38865;SDS011;62686;48.984;8.394;2023-02-26T15:22:23;2.30;;;1.00;;
38865;SDS011;62686;48.984;8.394;2023-02-26T15:25:01;1.37;;;1.20;;
38865;SDS011;62686;48.984;8.394;2023-02-26T15:27:36;1.00;;;0.90;;
38865;SDS011;62686;48.984;8.394;2023-02-26T15:30:04;1.20;;;1.00;;
38865;SDS011;62686;48.984;8.394;2023-02-26T15:32:36;1.43;;;1.13;;
38865;SDS011;62686;48.984;8.394;2023-02-26T15:35:10;1.30;;;1.00;;
38865;SDS011;62686;48.984;8.394;2023-02-26T15:37:47;1.97;;;1.30;;
38865;SDS011;62686;48.984;8.394;2023-02-26T15:40:17;0.80;;;0.80;;
38865;SDS011;62686;48.984;8.394;2023-02-26T15:42:48;1.47;;;0.90;;
38865;SDS011;62686;48.984;8.394;2023-02-26T15:45:21;1.00;;;0.80;;
38865;SDS011;62686;48.984;8.394;2023-02-26T15:48:01;3.23;;;1.10;;
38865;SDS011;62686;48.984;8.394;2023-02-26T15:50:34;1.53;;;1.00;;
38865;SDS011;62686;48.984;8.394;2023-02-26T15:53:12;0.87;;;0.83;;
38865;SDS011;62686;48.984;8.394;2023-02-26T15:55:49;1.00;;;0.90;;